Pagina principală
METAR-TAF:

METAR-TAF

Aeroporturi :

Puerto Suárez, Bolivia

Latitudine: 18-59S, longitudine: 057-49W, elevație: 134 m

Observații meteo curente

Raportul a fost făcut în urmă cu 12 ore și 14 de minute, la 22:00 UTC
Vânt calm
Temperatură 23°C
Umiditate 94%
Presiune 1015 hPa
Vizibilitate de 10 km sau mai mult
Nori fragmentați la o înălțime de 1000 picior
Nori fragmentați la o înălțime de 7000 picior

METAR: SLPS 172200Z 00000KT 9999 BKN010 BKN070 23/22 Q1015

Ora: 06:14 (10:14 UTC)


TAF: lipsă

Observații și prognoze meteo pentru peste 4.000 de aeroporturi (rapoarte METAR și TAF).

Stațiile disponibile sunt reprezentate pe hartă prin puncte galbene și roșii.

Țineți indicatorul mouse-ului pe punctul dorit pentru a vedea denumirea stației.

Apoi, faceți clic pentru a vedea observațiile și prognozele meteorologice.

Pentru a schimba harta: Pentru mărire, faceți clic pe butoanele verzi cu cruce neagră; pentru micșorare, pe butonul verde cu o liniuță; pentru hărți învecinate, pe săgețile verzi.


METAR-TAF: